Aeroporto :
LOGIN :

Iscrizione | Disclaimer

   EN    FR    IT 

 










Sommario :    VFR   VFR Marginale   IFR   IFR Intensivo   IFR Molto Intensivo
Visibilità : 
Base nubi : 
>= 8 km
>= 3000ft
5 / 8 km
1000 / 3000 ft
1500m / 5 km
500 / 1000 ft
800 / 1500m
200 / 500 ft
< 800m
< 200 ft
Simboli :   Temporali  Nebbia  Neve Forte  Precipitazioni Forti  Vento > 20 kt
SIGMETs :   Varie  Temporali  Ghiacco  Turbolenza  Onda orograficha  Ceneri Vulcaniche







- Altitudine del aeroporto : 22 ft
- Codice IATA : LDY
- Carte del aeroporto


EGAE - Londonderry Eglington

ULTIMO METAR :
  • 210720Z 19015G26KT 9999 FEW013 15/12 Q1017

METARs OBSOLETI :
  • 210620Z 19010KT 9999 FEW009 14/11 Q1018
  • 210550Z VRB04KT 9999 FEW009 13/11 Q1018
  • 210520Z 20007KT 9999 FEW009 13/11 Q1019

TAF AMD TAF EGAE
Valido dal 21 a 07 ore il 21 a 15 ore UTC


210737Z 2107/2115 VRB04KT 9999 FEW012 SCT025
BECMG 2107/2109 20018G28KT
TEMPO 2108/2115 7000 RA -RADZ BKN014
PROB30
TEMPO 2110/2115 4000 +RA RADZ
Nessun NOTAM noto per questo aeroporto.



MetMap, La meteo Aeronautica in un colpo d'occhio ! - Copyright ORBIFLY Dicembre 2007 - Disclaimer

ORBIFLY MET'MAP TEAM :

Programmazione e sviluppo : Alexandra Zaïnal
Concezione e sviluppo : Baudouin d'Aumeries
Co-Programmazione e sviluppo : Marc-Olivier Méhu
Supporto tecnico e logistico : Manuel Goepfert
Aiuto per la traduzione : Arnaldo La Scala

Contatto : metmap@orbifly.com




FONTI E CREDITI :

   NOAA